createdAt,value
2018-10-06T00:04:43.646Z,10.30
2018-10-06T00:09:38.494Z,12.40
2018-10-06T00:14:33.337Z,11.27
2018-10-06T00:19:28.162Z,13.13
2018-10-06T00:24:22.990Z,12.83
2018-10-06T00:29:17.854Z,12.77
2018-10-06T00:34:12.749Z,12.90
2018-10-06T00:39:08.386Z,13.77
2018-10-06T00:44:03.205Z,12.00
2018-10-06T00:48:58.021Z,13.03
2018-10-06T00:53:52.870Z,13.20
2018-10-06T00:58:47.644Z,13.73
2018-10-06T01:03:42.470Z,13.50
2018-10-06T01:08:37.800Z,15.13
2018-10-06T01:13:33.496Z,15.40
2018-10-06T01:18:28.249Z,14.97
2018-10-06T01:23:23.085Z,18.23
2018-10-06T01:28:17.879Z,17.37
2018-10-06T01:33:12.722Z,17.43
2018-10-06T01:38:07.556Z,17.90
2018-10-06T01:43:05.307Z,19.37
2018-10-06T01:48:00.157Z,18.27
2018-10-06T01:52:54.998Z,17.67
2018-10-06T01:57:49.850Z,20.67
2018-10-06T02:02:44.666Z,17.83
2018-10-06T02:07:39.495Z,18.37
2018-10-06T02:12:34.364Z,18.03
2018-10-06T02:17:29.175Z,16.37
2018-10-06T02:22:24.559Z,17.30
2018-10-06T02:27:19.373Z,16.97
2018-10-06T02:32:14.305Z,15.77
2018-10-06T02:37:09.271Z,16.13
2018-10-06T02:42:04.236Z,16.37
2018-10-06T02:46:59.126Z,16.70
2018-10-06T02:51:54.061Z,15.93
2018-10-06T02:56:48.893Z,15.27
2018-10-06T03:01:43.780Z,15.10
2018-10-06T03:06:38.655Z,14.63
2018-10-06T03:11:33.606Z,15.33
2018-10-06T03:16:28.474Z,15.13
2018-10-06T03:21:23.716Z,14.27
2018-10-06T03:26:18.724Z,13.67
2018-10-06T03:31:13.600Z,14.60
2018-10-06T03:36:08.645Z,13.83
2018-10-06T03:41:03.518Z,13.20
2018-10-06T03:45:58.414Z,13.67
2018-10-06T03:50:53.318Z,15.00
2018-10-06T03:55:48.123Z,13.30
2018-10-06T04:00:42.991Z,14.27
2018-10-06T04:05:37.842Z,14.30
2018-10-06T04:10:32.633Z,13.33
2018-10-06T04:15:27.525Z,13.33
2018-10-06T04:20:22.380Z,14.17
2018-10-06T04:25:17.240Z,13.50
2018-10-06T04:30:12.125Z,12.93
2018-10-06T04:35:07.004Z,13.47
2018-10-06T04:40:01.800Z,13.93
2018-10-06T04:44:56.654Z,14.00
2018-10-06T04:49:51.462Z,13.33
2018-10-06T04:54:46.431Z,12.70
2018-10-06T04:59:41.317Z,13.53
2018-10-06T05:04:36.209Z,13.33
2018-10-06T05:09:31.681Z,13.37
2018-10-06T05:14:33.136Z,14.50
2018-10-06T05:19:27.943Z,14.27
2018-10-06T05:24:22.798Z,13.93
2018-10-06T05:29:18.585Z,13.27
2018-10-06T05:34:13.558Z,12.93
2018-10-06T05:39:10.728Z,13.33
2018-10-06T05:44:05.626Z,13.03
2018-10-06T05:49:00.491Z,14.10
2018-10-06T05:53:55.624Z,15.07
2018-10-06T05:58:50.541Z,15.77
2018-10-06T06:03:45.410Z,16.33
2018-10-06T06:08:40.266Z,13.70
2018-10-06T06:13:35.122Z,13.10
2018-10-06T06:18:29.938Z,14.67
2018-10-06T06:23:24.811Z,13.03
2018-10-06T06:28:19.688Z,14.10
2018-10-06T06:33:14.529Z,14.20
2018-10-06T06:38:09.369Z,14.07
2018-10-06T06:43:04.326Z,14.27
2018-10-06T06:48:01.081Z,14.40
2018-10-06T06:52:55.935Z,14.67
2018-10-06T06:57:50.739Z,13.03
2018-10-06T07:02:45.562Z,13.07
2018-10-06T07:07:40.387Z,13.67
2018-10-06T07:12:35.248Z,13.87
2018-10-06T07:17:30.051Z,13.50
2018-10-06T07:22:24.918Z,16.00
2018-10-06T07:27:19.765Z,13.67
2018-10-06T07:32:15.148Z,13.50
2018-10-06T07:37:10.141Z,12.97
2018-10-06T07:42:05.097Z,13.77
2018-10-06T07:46:59.909Z,14.53
2018-10-06T07:51:54.818Z,14.47
2018-10-06T07:56:49.672Z,14.77
2018-10-06T08:01:44.451Z,14.37
2018-10-06T08:06:39.342Z,14.47
2018-10-06T08:11:34.243Z,14.10
2018-10-06T08:16:29.028Z,13.77
2018-10-06T08:21:23.867Z,13.83
2018-10-06T08:26:18.726Z,14.87
2018-10-06T08:31:13.539Z,13.80
2018-10-06T08:36:08.381Z,14.40
2018-10-06T08:41:03.182Z,15.33
2018-10-06T08:45:58.097Z,16.17
2018-10-06T08:50:52.964Z,16.43
2018-10-06T08:55:47.804Z,14.93
2018-10-06T09:00:42.833Z,16.00
2018-10-06T09:05:37.658Z,14.63
2018-10-06T09:10:32.627Z,15.63
2018-10-06T09:15:27.507Z,14.20
2018-10-06T09:20:22.318Z,15.13
2018-10-06T09:25:17.287Z,14.80
2018-10-06T09:30:12.185Z,14.93
2018-10-06T09:35:07.145Z,14.60
2018-10-06T09:40:01.967Z,14.07
2018-10-06T09:44:56.821Z,14.73
2018-10-06T09:49:51.656Z,14.07
2018-10-06T09:54:46.548Z,12.80
2018-10-06T09:59:41.378Z,13.07
2018-10-06T10:04:36.243Z,12.30
2018-10-06T10:09:31.078Z,14.80
2018-10-06T10:14:25.834Z,13.33
2018-10-06T10:19:20.677Z,14.50
2018-10-06T10:24:15.475Z,15.90
2018-10-06T10:29:10.306Z,14.37
2018-10-06T10:34:05.127Z,15.27
2018-10-06T10:38:59.923Z,14.77
2018-10-06T10:43:54.821Z,14.07
2018-10-06T10:48:49.740Z,14.17
2018-10-06T10:53:44.569Z,13.90
2018-10-06T10:58:39.394Z,13.37
2018-10-06T11:03:34.244Z,12.33
2018-10-06T11:08:29.106Z,14.03
2018-10-06T11:13:24.009Z,13.60
2018-10-06T11:18:18.890Z,13.60
2018-10-06T11:23:13.701Z,13.30
2018-10-06T11:28:09.263Z,12.93
2018-10-06T11:33:04.141Z,12.77
2018-10-06T11:37:58.970Z,13.13
2018-10-06T11:42:53.854Z,14.00
2018-10-06T11:47:49.204Z,12.00
2018-10-06T11:52:44.036Z,12.57
2018-10-06T11:57:38.866Z,12.47
2018-10-06T12:02:34.022Z,11.80
2018-10-06T12:07:28.925Z,12.67
2018-10-06T12:12:24.281Z,11.67
2018-10-06T12:17:19.096Z,11.43
2018-10-06T12:22:13.985Z,10.00
2018-10-06T12:27:08.839Z,10.47
2018-10-06T12:32:03.677Z,10.93
2018-10-06T12:36:58.541Z,11.90
2018-10-06T12:41:53.574Z,12.10
2018-10-06T12:46:48.410Z,11.53
2018-10-06T12:51:43.294Z,11.00
2018-10-06T12:56:38.264Z,12.37
2018-10-06T13:01:33.127Z,12.23
2018-10-06T13:06:27.964Z,12.93
2018-10-06T13:11:22.822Z,11.20
2018-10-06T13:16:17.694Z,12.10
2018-10-06T13:21:12.521Z,11.00
2018-10-06T13:26:07.389Z,11.90
2018-10-06T13:31:02.168Z,12.67
2018-10-06T13:35:56.953Z,11.73
2018-10-06T13:40:51.879Z,12.23
2018-10-06T13:45:46.753Z,11.67
2018-10-06T13:50:41.585Z,12.70
2018-10-06T13:55:37.111Z,13.73
2018-10-06T14:00:32.033Z,13.33
2018-10-06T14:05:26.897Z,14.07
2018-10-06T14:10:21.734Z,12.30
2018-10-06T14:15:16.574Z,13.63
2018-10-06T14:20:11.396Z,14.47
2018-10-06T14:25:06.274Z,14.23
2018-10-06T14:30:01.087Z,14.80
2018-10-06T14:34:55.981Z,13.27
2018-10-06T14:39:50.842Z,13.30
2018-10-06T14:44:45.689Z,12.80
2018-10-06T14:49:40.504Z,12.07
2018-10-06T14:54:35.395Z,13.10
2018-10-06T14:59:30.238Z,12.50
2018-10-06T15:04:25.142Z,12.33
2018-10-06T15:09:20.132Z,11.53
2018-10-06T15:14:14.957Z,12.60
2018-10-06T15:19:09.761Z,11.57
2018-10-06T15:24:04.625Z,11.97
2018-10-06T15:28:59.885Z,11.80
2018-10-06T15:33:54.722Z,11.17
2018-10-06T15:38:49.552Z,11.83
2018-10-06T15:43:44.441Z,11.37
2018-10-06T15:48:39.693Z,11.30
2018-10-06T15:53:34.858Z,10.60
2018-10-06T15:58:29.699Z,11.67
2018-10-06T16:03:24.520Z,10.67
2018-10-06T16:08:19.358Z,10.97
2018-10-06T16:13:14.191Z,10.97
2018-10-06T16:18:09.102Z,10.50
2018-10-06T16:23:03.995Z,9.40
2018-10-06T16:27:58.852Z,9.60
2018-10-06T16:32:53.778Z,8.80
2018-10-06T16:37:48.692Z,9.27
2018-10-06T16:42:44.501Z,9.67
2018-10-06T16:47:39.388Z,8.73
2018-10-06T16:52:34.253Z,9.20
2018-10-06T16:57:29.135Z,9.07
2018-10-06T17:02:23.989Z,9.33
2018-10-06T17:07:18.865Z,10.20
2018-10-06T17:12:13.754Z,10.43
2018-10-06T17:17:08.628Z,8.60
2018-10-06T17:22:03.587Z,10.00
2018-10-06T17:26:58.549Z,10.47
2018-10-06T17:31:53.429Z,9.83
2018-10-06T17:36:48.338Z,10.13
2018-10-06T17:41:43.228Z,10.50
2018-10-06T17:46:38.093Z,10.13
2018-10-06T17:51:32.934Z,10.57
2018-10-06T17:56:27.781Z,10.13
2018-10-06T18:01:25.122Z,10.70
2018-10-06T18:06:20.007Z,11.30
2018-10-06T18:11:15.434Z,10.57
2018-10-06T18:16:10.286Z,11.70
2018-10-06T18:21:06.734Z,11.33
2018-10-06T18:26:02.546Z,12.07
2018-10-06T18:30:57.357Z,12.60
2018-10-06T18:35:52.330Z,12.63
2018-10-06T18:40:47.198Z,12.40
2018-10-06T18:45:42.041Z,11.97
2018-10-06T18:50:36.996Z,11.87
2018-10-06T18:55:31.808Z,12.57
2018-10-06T19:00:26.748Z,12.10
2018-10-06T19:05:21.623Z,13.87
2018-10-06T19:10:16.559Z,14.17
2018-10-06T19:15:11.394Z,12.70
2018-10-06T19:20:06.709Z,11.40
2018-10-06T19:25:01.581Z,11.77
2018-10-06T19:29:56.486Z,10.77
2018-10-06T19:34:51.422Z,9.73
2018-10-06T19:39:46.370Z,9.80
2018-10-06T19:44:41.253Z,9.30
2018-10-06T19:49:37.939Z,9.60
2018-10-06T19:54:32.819Z,9.63
2018-10-06T19:59:27.687Z,8.87
2018-10-06T20:04:22.658Z,8.90
2018-10-06T20:09:17.976Z,8.87
2018-10-06T20:14:12.998Z,8.77
2018-10-06T20:19:07.942Z,8.23
2018-10-06T20:24:03.117Z,8.60
2018-10-06T20:28:58.028Z,9.70
2018-10-06T20:33:52.938Z,9.13
2018-10-06T20:38:47.927Z,9.77
2018-10-06T20:43:42.772Z,10.13
2018-10-06T20:48:37.622Z,10.27
2018-10-06T20:53:32.779Z,11.80
2018-10-06T20:58:27.646Z,10.97
2018-10-06T21:03:22.482Z,11.47
2018-10-06T21:08:17.423Z,10.47
2018-10-06T21:13:12.275Z,9.40
2018-10-06T21:18:07.179Z,10.53
2018-10-06T21:25:33.953Z,9.90
2018-10-06T21:30:29.076Z,8.97
2018-10-06T21:35:24.192Z,10.50
2018-10-06T21:40:19.183Z,8.67
2018-10-06T21:45:14.196Z,8.57
2018-10-06T21:50:09.162Z,8.90
2018-10-06T21:55:04.069Z,8.13
2018-10-06T21:59:58.994Z,8.70
2018-10-06T22:04:53.898Z,8.70
2018-10-06T22:09:48.776Z,9.37
2018-10-06T22:14:43.704Z,7.93
2018-10-06T22:19:38.568Z,8.63
2018-10-06T22:24:33.416Z,8.90
2018-10-06T22:29:28.362Z,8.83
2018-10-06T22:34:23.199Z,8.53
2018-10-06T22:39:18.003Z,8.93
2018-10-06T22:44:12.904Z,9.30
2018-10-06T22:49:07.732Z,9.13
2018-10-06T22:54:02.543Z,9.43
2018-10-06T22:58:57.350Z,9.73
2018-10-06T23:03:52.281Z,10.27
2018-10-06T23:08:47.104Z,10.30
2018-10-06T23:13:41.959Z,10.33
2018-10-06T23:18:36.844Z,10.40
2018-10-06T23:23:31.667Z,10.20
2018-10-06T23:28:26.495Z,9.87
2018-10-06T23:33:21.337Z,9.40
2018-10-06T23:38:16.162Z,8.57
2018-10-06T23:43:11.036Z,8.33
2018-10-06T23:48:05.869Z,9.83
2018-10-06T23:53:00.676Z,8.63
2018-10-06T23:57:56.009Z,8.00
